Time;durP1;ratioP1;P1;durP2;ratioP2;P2;SDS_P1;SDS_P2;PMS_P1;PMS_P2;Temp;Humidity;BMP_temperature;BMP_pressure;BME280_temperature;BME280_humidity;BME280_pressure;Samples;Min_cycle;Max_cycle;Signal;HPM_P1;HPM_P2
2022/08/22 00:01:44;;;;;;;3.50;2.00;;;;;;;;;;5066694;28;20025;-67
2022/08/22 00:04:30;;;;;;;3.77;1.93;;;;;;;;;;5067267;28;20028;-67
2022/08/22 00:06:59;;;;;;;4.13;1.80;;;;;;;;;;5067117;28;20356;-67
2022/08/22 00:09:37;;;;;;;2.00;1.73;;;;;;;;;;5071569;28;20036;-67
2022/08/22 00:12:28;;;;;;;2.23;1.53;;;;;;;;;;5072219;28;20021;-67
2022/08/22 00:14:57;;;;;;;7.00;2.63;;;;;;;;;;5071927;28;20107;-67
2022/08/22 00:17:24;;;;;;;3.70;2.27;;;;;;;;;;5071900;28;20078;-67
2022/08/22 00:19:51;;;;;;;9.00;2.17;;;;;;;;;;5071080;28;20020;-66
2022/08/22 00:22:25;;;;;;;7.17;2.43;;;;;;;;;;5066032;28;20475;-67
2022/08/22 00:25:04;;;;;;;3.22;1.95;;;;;;;;;;5066860;28;20041;-67
2022/08/22 00:27:48;;;;;;;4.90;2.03;;;;;;;;;;5048435;28;20071;-67
2022/08/22 00:30:17;;;;;;;6.10;2.43;;;;;;;;;;5068216;28;20031;-66
2022/08/22 00:32:43;;;;;;;5.60;1.80;;;;;;;;;;5071869;28;20028;-66
2022/08/22 00:35:13;;;;;;;4.00;1.90;;;;;;;;;;5072073;28;20046;-66
2022/08/22 00:37:43;;;;;;;2.90;1.93;;;;;;;;;;5071763;28;20345;-66
2022/08/22 00:40:11;;;;;;;4.77;1.83;;;;;;;;;;5071731;28;20033;-67
2022/08/22 00:42:41;;;;;;;5.57;1.90;;;;;;;;;;5069713;28;20074;-67
2022/08/22 00:45:26;;;;;;;6.53;2.63;;;;;;;;;;5066521;28;20024;-67
2022/08/22 00:48:12;;;;;;;4.47;1.88;;;;;;;;;;5066367;28;20108;-67
2022/08/22 00:50:58;;;;;;;3.00;2.10;;;;;;;;;;5066465;28;20518;-67
2022/08/22 00:53:44;;;;;;;4.70;2.40;;;;;;;;;;5069359;28;20096;-67
2022/08/22 00:56:37;;;;;;;2.40;1.67;;;;;;;;;;5071065;28;20024;-67
2022/08/22 00:59:11;;;;;;;4.27;2.53;;;;;;;;;;5067272;28;20041;-66
2022/08/22 01:01:41;;;;;;;3.37;2.03;;;;;;;;;;5052021;28;20033;-66
2022/08/22 01:04:08;;;;;;;6.47;1.67;;;;;;;;;;5051544;28;20286;-68
2022/08/22 01:07:04;;;;;;;2.90;1.60;;;;;;;;;;5046395;28;20029;-67
2022/08/22 01:09:40;;;;;;;2.10;1.47;;;;;;;;;;5047875;28;20040;-67
2022/08/22 01:12:33;;;;;;;2.27;1.40;;;;;;;;;;5067760;28;20086;-67
2022/08/22 01:15:05;;;;;;;4.27;1.63;;;;;;;;;;5071708;28;20028;-67
2022/08/22 01:17:31;;;;;;;1.37;0.97;;;;;;;;;;5075137;28;20028;-67
2022/08/22 01:20:01;;;;;;;3.43;1.93;;;;;;;;;;5075418;28;20029;-67
2022/08/22 01:22:46;;;;;;;6.30;1.73;;;;;;;;;;5075252;28;20115;-67
2022/08/22 01:25:19;;;;;;;2.72;2.00;;;;;;;;;;5075175;28;20491;-66
2022/08/22 01:28:05;;;;;;;2.97;1.60;;;;;;;;;;5072032;28;20024;-66
2022/08/22 01:30:32;;;;;;;9.03;1.60;;;;;;;;;;5069834;28;20108;-67
2022/08/22 01:32:58;;;;;;;2.33;1.90;;;;;;;;;;5069802;28;20060;-67
2022/08/22 01:35:31;;;;;;;2.80;1.70;;;;;;;;;;5069963;28;20483;-66
2022/08/22 01:38:01;;;;;;;3.63;1.93;;;;;;;;;;5072115;28;20025;-67
2022/08/22 01:40:40;;;;;;;4.50;2.37;;;;;;;;;;5074930;28;20051;-66
2022/08/22 01:43:19;;;;;;;4.70;2.80;;;;;;;;;;5074469;28;20096;-67
2022/08/22 01:45:56;;;;;;;2.27;1.70;;;;;;;;;;5074641;28;20566;-66
2022/08/22 01:48:38;;;;;;;3.00;2.23;;;;;;;;;;5055040;28;20102;-66
2022/08/22 01:51:23;;;;;;;2.57;1.93;;;;;;;;;;5050087;28;20356;-66
2022/08/22 01:53:49;;;;;;;;;;;;;;;;;;5049979;28;20025;-66
2022/08/22 01:56:18;;;;;;;2.47;1.70;;;;;;;;;;5053013;28;19908;-66
2022/08/22 01:58:55;;;;;;;2.00;1.40;;;;;;;;;;5069292;28;20037;-66
2022/08/22 02:01:33;;;;;;;12.23;1.87;;;;;;;;;;5074322;28;20031;-66
2022/08/22 02:04:09;;;;;;;1.77;1.40;;;;;;;;;;5074545;28;20060;-66
2022/08/22 02:06:58;;;;;;;3.00;1.97;;;;;;;;;;5074261;28;20429;-65
2022/08/22 02:09:40;;;;;;;1.60;1.33;;;;;;;;;;5063892;28;20029;-66
2022/08/22 02:12:19;;;;;;;1.60;1.47;;;;;;;;;;5072437;28;20170;-66
2022/08/22 02:15:09;;;;;;;4.13;2.03;;;;;;;;;;5069167;28;20502;-66
2022/08/22 02:17:48;;;;;;;4.47;2.40;;;;;;;;;;5057498;28;20044;-66
2022/08/22 02:20:24;;;;;;;1.87;1.43;;;;;;;;;;5068907;28;20084;-66
2022/08/22 02:22:58;;;;;;;2.60;1.50;;;;;;;;;;5071381;28;20020;-66
2022/08/22 02:25:33;;;;;;;3.08;1.67;;;;;;;;;;5074243;28;20426;-65
2022/08/22 02:28:01;;;;;;;3.35;2.20;;;;;;;;;;5073906;28;20025;-66
2022/08/22 02:30:45;;;;;;;1.63;1.27;;;;;;;;;;5074112;28;20043;-65
2022/08/22 02:33:23;;;;;;;5.13;1.63;;;;;;;;;;5073169;28;20112;-65
2022/08/22 02:36:00;;;;;;;2.07;1.37;;;;;;;;;;5067756;28;20027;-66
2022/08/22 02:38:42;;;;;;;1.70;1.17;;;;;;;;;;5068569;28;20036;-66
2022/08/22 02:41:23;;;;;;;1.50;1.27;;;;;;;;;;5068635;28;20442;-66
2022/08/22 02:43:59;;;;;;;2.53;1.03;;;;;;;;;;5068185;28;20028;-66
2022/08/22 02:46:48;;;;;;;3.20;2.13;;;;;;;;;;5073422;28;20094;-65
2022/08/22 02:49:44;;;;;;;1.77;1.30;;;;;;;;;;5073567;28;20111;-65
2022/08/22 02:52:18;;;;;;;2.37;1.40;;;;;;;;;;5002631;28;20104;-65
2022/08/22 02:54:59;;;;;;;3.07;1.53;;;;;;;;;;5073461;28;20111;-65
2022/08/22 02:57:38;;;;;;;1.77;1.53;;;;;;;;;;5067749;28;20350;-65
2022/08/22 03:00:14;;;;;;;1.20;1.10;;;;;;;;;;5068280;28;20031;-65
2022/08/22 03:03:01;;;;;;;1.10;0.90;;;;;;;;;;5067658;28;20036;-65
2022/08/22 03:05:30;;;;;;;3.67;1.73;;;;;;;;;;5068046;28;20028;-65
2022/08/22 03:08:08;;;;;;;0.77;0.70;;;;;;;;;;5071564;28;20025;-65
2022/08/22 03:10:41;;;;;;;25.80;2.23;;;;;;;;;;5073045;28;20016;-65
2022/08/22 03:13:13;;;;;;;1.77;1.40;;;;;;;;;;5072728;28;20024;-65
2022/08/22 03:15:47;;;;;;;2.57;2.00;;;;;;;;;;5073106;28;20036;-65
2022/08/22 03:18:20;;;;;;;2.97;2.17;;;;;;;;;;5071859;28;20033;-65
2022/08/22 03:20:59;;;;;;;1.80;1.37;;;;;;;;;;5067807;28;20085;-65
2022/08/22 03:23:49;;;;;;;2.83;1.43;;;;;;;;;;5067756;28;20062;-65
2022/08/22 03:26:27;;;;;;;1.40;0.93;;;;;;;;;;5056579;28;20473;-65
2022/08/22 03:29:00;;;;;;;1.67;1.23;;;;;;;;;;5068106;28;20044;-65
2022/08/22 03:31:27;;;;;;;2.00;1.27;;;;;;;;;;5072812;28;20031;-65
2022/08/22 03:34:12;;;;;;;2.73;0.73;;;;;;;;;;5072568;28;20029;-65
2022/08/22 03:36:39;;;;;;;1.15;1.05;;;;;;;;;;5072299;28;20021;-65
2022/08/22 03:39:14;;;;;;;3.30;1.67;;;;;;;;;;5072774;28;20561;-65
2022/08/22 03:41:43;;;;;;;2.33;1.52;;;;;;;;;;5070521;28;20058;-65
2022/08/22 03:44:18;;;;;;;2.80;1.50;;;;;;;;;;5067197;28;20071;-65
2022/08/22 03:46:44;;;;;;;;;;;;;;;;;;5067667;28;20025;-65
2022/08/22 03:49:14;;;;;;;1.63;1.27;;;;;;;;;;5066970;28;19962;-65
2022/08/22 03:51:51;;;;;;;1.47;1.27;;;;;;;;;;5068982;28;20066;-65
2022/08/22 03:54:36;;;;;;;3.20;1.57;;;;;;;;;;5072399;28;20032;-65
2022/08/22 03:57:09;;;;;;;1.42;1.27;;;;;;;;;;5072496;28;20025;-65
2022/08/22 03:59:54;;;;;;;2.73;1.60;;;;;;;;;;5072555;28;20063;-65
2022/08/22 04:02:20;;;;;;;2.53;1.85;;;;;;;;;;5071816;28;20028;-65
2022/08/22 04:05:06;;;;;;;2.07;1.60;;;;;;;;;;5068606;28;20375;-65
2022/08/22 04:07:35;;;;;;;2.78;2.08;;;;;;;;;;5067184;28;20032;-65
2022/08/22 04:10:20;;;;;;;2.47;1.87;;;;;;;;;;5067015;28;20025;-65
2022/08/22 04:12:53;;;;;;;1.85;1.70;;;;;;;;;;5061113;28;20078;-65
2022/08/22 04:15:44;;;;;;;5.93;2.97;;;;;;;;;;5071633;28;20042;-65
2022/08/22 04:18:23;;;;;;;2.57;1.70;;;;;;;;;;5072260;28;20384;-65
2022/08/22 04:21:05;;;;;;;2.77;1.07;;;;;;;;;;5072058;28;20029;-65
2022/08/22 04:23:37;;;;;;;2.43;1.90;;;;;;;;;;5071351;28;20028;-65
2022/08/22 04:26:06;;;;;;;2.53;1.83;;;;;;;;;;5070508;28;20040;-65
2022/08/22 04:28:48;;;;;;;3.03;2.37;;;;;;;;;;5066626;28;20033;-65
2022/08/22 04:31:17;;;;;;;2.23;1.93;;;;;;;;;;5066679;28;20037;-65
2022/08/22 04:33:47;;;;;;;1.80;1.53;;;;;;;;;;5066670;28;20024;-65
2022/08/22 04:36:22;;;;;;;3.37;2.53;;;;;;;;;;5068216;28;20033;-65
2022/08/22 04:39:02;;;;;;;2.17;1.77;;;;;;;;;;5071917;28;20070;-65
2022/08/22 04:41:34;;;;;;;1.80;1.60;;;;;;;;;;5071754;28;20108;-64
2022/08/22 04:44:07;;;;;;;2.17;1.70;;;;;;;;;;5071123;28;20021;-65
2022/08/22 04:46:34;;;;;;;2.43;2.03;;;;;;;;;;5073122;28;20494;-65
2022/08/22 04:49:07;;;;;;;2.60;1.97;;;;;;;;;;5073197;28;20022;-65
2022/08/22 04:51:53;;;;;;;2.30;1.70;;;;;;;;;;5070700;28;20024;-65
2022/08/22 04:54:26;;;;;;;2.33;1.93;;;;;;;;;;5070018;28;20494;-65
2022/08/22 04:56:52;;;;;;;4.33;1.97;;;;;;;;;;5070433;28;20029;-65
2022/08/22 04:59:19;;;;;;;3.70;2.30;;;;;;;;;;5073502;28;20174;-65
2022/08/22 05:01:55;;;;;;;2.50;1.77;;;;;;;;;;5075698;28;20047;-65
2022/08/22 05:04:33;;;;;;;3.97;2.00;;;;;;;;;;5075448;28;20577;-64
2022/08/22 05:07:00;;;;;;;2.13;1.73;;;;;;;;;;5075021;28;20017;-64
2022/08/22 05:09:28;;;;;;;2.77;1.77;;;;;;;;;;5075439;28;20028;-64
2022/08/22 05:11:59;;;;;;;2.53;1.43;;;;;;;;;;5071330;28;20028;-64
2022/08/22 05:14:36;;;;;;;5.33;2.03;;;;;;;;;;5069902;28;20062;-65
2022/08/22 05:17:03;;;;;;;4.97;2.97;;;;;;;;;;5070257;28;20029;-65
2022/08/22 05:19:33;;;;;;;2.97;1.97;;;;;;;;;;5069913;28;20024;-65
2022/08/22 05:22:01;;;;;;;10.80;2.50;;;;;;;;;;5073740;28;20491;-64
2022/08/22 05:24:37;;;;;;;1.50;1.33;;;;;;;;;;5075294;28;20028;-65
2022/08/22 05:27:10;;;;;;;3.67;1.87;;;;;;;;;;5075295;28;20115;-65
2022/08/22 05:29:38;;;;;;;2.43;1.53;;;;;;;;;;5075208;28;20013;-65
2022/08/22 05:32:08;;;;;;;2.73;2.00;;;;;;;;;;5074091;28;20028;-65
2022/08/22 05:34:39;;;;;;;2.50;1.43;;;;;;;;;;5070449;28;20027;-65
2022/08/22 05:37:13;;;;;;;3.07;1.63;;;;;;;;;;5069950;28;20402;-65
2022/08/22 05:39:45;;;;;;;3.10;2.13;;;;;;;;;;5069836;28;20419;-65
2022/08/22 05:42:32;;;;;;;3.07;1.73;;;;;;;;;;5069608;28;20028;-65
2022/08/22 05:45:01;;;;;;;1.73;1.50;;;;;;;;;;5074559;28;20036;-65
2022/08/22 05:47:35;;;;;;;3.33;1.40;;;;;;;;;;5074913;28;20079;-65
2022/08/22 05:50:01;;;;;;;1.40;1.17;;;;;;;;;;5074825;28;20021;-64
2022/08/22 05:52:40;;;;;;;4.80;2.27;;;;;;;;;;5074326;28;20035;-64
2022/08/22 05:55:17;;;;;;;1.90;1.63;;;;;;;;;;5074117;28;20020;-64
2022/08/22 05:57:47;;;;;;;2.20;1.70;;;;;;;;;;5068594;28;20111;-65
2022/08/22 06:00:21;;;;;;;2.67;2.03;;;;;;;;;;5069163;28;20029;-65
2022/08/22 06:02:53;;;;;;;2.03;1.80;;;;;;;;;;5049304;28;20075;-65
2022/08/22 06:05:24;;;;;;;4.17;2.77;;;;;;;;;;5050083;28;20028;-65
2022/08/22 06:07:53;;;;;;;1.17;0.97;;;;;;;;;;5054513;28;20495;-65
2022/08/22 06:10:39;;;;;;;3.40;2.87;;;;;;;;;;5071077;28;20032;-64
2022/08/22 06:13:10;;;;;;;2.28;1.67;;;;;;;;;;5074107;28;20033;-64
2022/08/22 06:15:55;;;;;;;3.10;1.70;;;;;;;;;;5074390;28;20024;-64
2022/08/22 06:18:24;;;;;;;2.42;1.80;;;;;;;;;;5071161;28;20040;-64
2022/08/22 06:20:50;;;;;;;5.67;2.53;;;;;;;;;;5068643;28;20028;-65
2022/08/22 06:23:21;;;;;;;2.40;2.03;;;;;;;;;;5068970;28;20031;-64
2022/08/22 06:25:49;;;;;;;3.47;2.20;;;;;;;;;;5068621;28;20996;-65
2022/08/22 06:28:24;;;;;;;2.20;1.57;;;;;;;;;;5071072;28;20027;-64
2022/08/22 06:30:53;;;;;;;1.20;1.10;;;;;;;;;;5073565;28;20054;-64
2022/08/22 06:33:26;;;;;;;3.87;1.80;;;;;;;;;;5073974;28;20046;-64
2022/08/22 06:38:53;;;;;;;3.50;1.80;;;;;;;;;;5073553;28;20445;-64
2022/08/22 06:41:21;;;;;;;1.93;1.23;;;;;;;;;;5069777;28;20032;-64
2022/08/22 06:43:49;;;;;;;1.40;1.07;;;;;;;;;;5068456;28;20033;-64
2022/08/22 06:46:16;;;;;;;1.67;1.27;;;;;;;;;;5068524;28;20024;-64
2022/08/22 06:48:43;;;;;;;2.47;1.93;;;;;;;;;;5067507;28;20032;-65
2022/08/22 06:51:11;;;;;;;1.03;0.93;;;;;;;;;;5071771;28;20024;-65
2022/08/22 06:53:45;;;;;;;1.70;1.27;;;;;;;;;;5073399;28;20104;-64
2022/08/22 06:56:12;;;;;;;1.30;1.15;;;;;;;;;;5073648;28;20024;-64
2022/08/22 06:58:42;;;;;;;1.90;1.57;;;;;;;;;;5073234;28;20029;-65
2022/08/22 07:01:13;;;;;;;1.50;1.20;;;;;;;;;;5073086;28;20028;-64
2022/08/22 07:03:43;;;;;;;1.53;1.23;;;;;;;;;;5069113;28;20028;-64
2022/08/22 07:06:14;;;;;;;5.70;1.60;;;;;;;;;;5068200;28;20028;-64
2022/08/22 07:08:41;;;;;;;2.90;1.67;;;;;;;;;;5068110;28;20016;-64
2022/08/22 07:11:15;;;;;;;1.33;1.23;;;;;;;;;;5067374;28;20095;-64
2022/08/22 07:13:53;;;;;;;1.80;1.50;;;;;;;;;;5071867;28;20020;-64
2022/08/22 07:16:25;;;;;;;1.37;1.20;;;;;;;;;;5073116;28;20528;-64
2022/08/22 07:18:53;;;;;;;1.23;1.13;;;;;;;;;;5072798;28;20036;-64
2022/08/22 07:21:27;;;;;;;1.50;1.23;;;;;;;;;;5053082;28;20029;-64
2022/08/22 07:23:54;;;;;;;6.65;1.85;;;;;;;;;;5053195;28;20458;-64
2022/08/22 07:26:28;;;;;;;5.37;1.73;;;;;;;;;;5047654;28;20032;-65
2022/08/22 07:28:55;;;;;;;1.33;1.13;;;;;;;;;;5048102;28;20394;-65
2022/08/22 07:31:24;;;;;;;1.77;1.27;;;;;;;;;;5061574;28;20060;-65
2022/08/22 07:33:55;;;;;;;1.00;0.80;;;;;;;;;;5067449;28;20032;-64
2022/08/22 07:36:54;;;;;;;1.73;1.37;;;;;;;;;;5072478;28;20024;-64
2022/08/22 07:39:35;;;;;;;1.60;0.90;;;;;;;;;;5028227;28;20514;-64
2022/08/22 07:42:12;;;;;;;4.37;1.30;;;;;;;;;;5072428;28;20024;-64
2022/08/22 07:44:48;;;;;;;14.43;1.67;;;;;;;;;;5071965;28;20027;-65
2022/08/22 07:47:17;;;;;;;2.23;1.27;;;;;;;;;;5070587;28;20029;-64
2022/08/22 07:49:44;;;;;;;0.87;0.70;;;;;;;;;;5067146;28;20028;-64
2022/08/22 07:52:12;;;;;;;2.33;1.43;;;;;;;;;;5067123;28;20028;-65
2022/08/22 07:54:54;;;;;;;1.40;1.10;;;;;;;;;;5067263;28;20387;-64
2022/08/22 07:57:20;;;;;;;2.43;1.73;;;;;;;;;;5069188;28;20095;-64
2022/08/22 07:59:49;;;;;;;1.43;1.10;;;;;;;;;;5072105;28;20147;-64
2022/08/22 08:02:17;;;;;;;1.50;0.97;;;;;;;;;;5072301;28;20030;-65
2022/08/22 08:04:44;;;;;;;2.83;0.90;;;;;;;;;;5072263;28;20360;-64
2022/08/22 08:07:13;;;;;;;1.90;1.07;;;;;;;;;;5072474;28;20127;-64
2022/08/22 08:09:41;;;;;;;1.50;1.10;;;;;;;;;;5069781;28;20086;-64
2022/08/22 08:12:10;;;;;;;3.50;1.20;;;;;;;;;;5066983;28;20464;-64
2022/08/22 08:14:41;;;;;;;3.93;2.03;;;;;;;;;;5066960;28;20063;-64
2022/08/22 08:17:21;;;;;;;1.20;0.93;;;;;;;;;;5067107;28;20024;-64
2022/08/22 08:19:49;;;;;;;2.63;1.47;;;;;;;;;;5068854;28;20045;-64
2022/08/22 08:22:18;;;;;;;1.60;1.23;;;;;;;;;;5071681;28;20506;-64
2022/08/22 08:24:46;;;;;;;1.10;1.00;;;;;;;;;;5072101;28;20103;-64
2022/08/22 08:30:06;;;;;;;0.90;0.67;;;;;;;;;;5071911;28;20031;-64
2022/08/22 08:32:36;;;;;;;1.00;0.80;;;;;;;;;;5068556;28;20127;-64
2022/08/22 08:35:13;;;;;;;1.40;1.20;;;;;;;;;;5066666;28;20435;-64
2022/08/22 08:37:45;;;;;;;4.77;1.50;;;;;;;;;;5066734;28;20421;-64
2022/08/22 08:40:20;;;;;;;0.47;0.43;;;;;;;;;;5066666;28;20024;-64
2022/08/22 08:45:48;;;;;;;1.50;1.23;;;;;;;;;;5072160;28;20494;-64
2022/08/22 08:48:31;;;;;;;1.30;1.07;;;;;;;;;;5071938;28;20029;-65
2022/08/22 08:51:07;;;;;;;0.70;0.60;;;;;;;;;;5071461;28;20029;-64
2022/08/22 08:53:34;;;;;;;1.20;1.03;;;;;;;;;;5070761;28;20032;-64
2022/08/22 08:56:23;;;;;;;0.80;0.80;;;;;;;;;;5066652;28;20025;-64
2022/08/22 08:59:08;;;;;;;2.07;1.43;;;;;;;;;;5066561;28;20438;-64
2022/08/22 09:01:44;;;;;;;2.70;1.90;;;;;;;;;;5066638;28;20356;-64
2022/08/22 09:04:25;;;;;;;2.97;1.67;;;;;;;;;;5068133;28;20384;-64
2022/08/22 09:07:10;;;;;;;2.30;1.23;;;;;;;;;;5071724;28;20016;-64
2022/08/22 09:09:40;;;;;;;0.80;0.68;;;;;;;;;;5071873;28;20025;-64
2022/08/22 09:12:15;;;;;;;2.43;1.00;;;;;;;;;;5071664;28;20032;-64
2022/08/22 09:15:00;;;;;;;0.93;0.88;;;;;;;;;;5071381;28;20029;-64
2022/08/22 09:17:42;;;;;;;1.65;1.15;;;;;;;;;;5067641;28;20024;-64
2022/08/22 09:20:28;;;;;;;2.10;1.77;;;;;;;;;;5066456;28;20360;-64
2022/08/22 09:23:09;;;;;;;0.50;0.50;;;;;;;;;;5065980;28;20029;-64
2022/08/22 09:25:44;;;;;;;1.90;1.60;;;;;;;;;;5066481;28;20032;-64
2022/08/22 09:28:16;;;;;;;1.35;1.15;;;;;;;;;;5071455;28;20016;-64
2022/08/22 09:30:50;;;;;;;2.10;1.60;;;;;;;;;;5071607;28;20031;-64
2022/08/22 09:33:19;;;;;;;2.60;1.73;;;;;;;;;;5071773;28;20434;-64
2022/08/22 09:35:54;;;;;;;1.93;1.43;;;;;;;;;;5075159;28;20082;-64
2022/08/22 09:38:30;;;;;;;1.80;1.50;;;;;;;;;;5073781;28;20056;-64
2022/08/22 09:41:09;;;;;;;3.00;1.67;;;;;;;;;;5069777;28;20025;-65
2022/08/22 09:43:39;;;;;;;1.10;1.00;;;;;;;;;;5069689;28;20028;-64
2022/08/22 09:46:26;;;;;;;2.37;1.60;;;;;;;;;;5069211;28;20037;-64
2022/08/22 09:49:05;;;;;;;3.33;2.00;;;;;;;;;;5071821;28;20029;-64
2022/08/22 09:51:54;;;;;;;2.70;1.60;;;;;;;;;;5074386;28;20048;-64
2022/08/22 09:54:28;;;;;;;2.00;1.30;;;;;;;;;;5074484;28;20146;-64
2022/08/22 09:57:07;;;;;;;1.47;1.13;;;;;;;;;;5074625;28;20032;-64
2022/08/22 09:59:41;;;;;;;3.90;1.33;;;;;;;;;;5074714;28;20028;-64
2022/08/22 10:02:20;;;;;;;1.85;1.60;;;;;;;;;;5069575;28;20371;-64
2022/08/22 10:04:57;;;;;;;1.50;1.17;;;;;;;;;;5069320;28;20581;-64
2022/08/22 10:07:23;;;;;;;0.87;0.87;;;;;;;;;;5069111;28;20099;-64
2022/08/22 10:09:53;;;;;;;3.80;1.57;;;;;;;;;;5069345;28;20021;-64
2022/08/22 10:12:26;;;;;;;4.57;1.27;;;;;;;;;;5073576;28;20024;-64
2022/08/22 10:15:08;;;;;;;4.37;1.90;;;;;;;;;;5074404;28;20024;-64
2022/08/22 10:17:36;;;;;;;1.43;1.20;;;;;;;;;;5074280;28;20482;-64
2022/08/22 10:20:08;;;;;;;2.27;1.57;;;;;;;;;;5074398;28;20073;-64
2022/08/22 10:23:01;;;;;;;2.83;1.27;;;;;;;;;;5073508;28;20024;-64
2022/08/22 10:25:28;;;;;;;1.57;1.27;;;;;;;;;;5065518;28;20365;-64
2022/08/22 10:27:59;;;;;;;1.43;1.13;;;;;;;;;;5068479;28;21668;-64
2022/08/22 10:30:31;;;;;;;2.40;1.40;;;;;;;;;;5068868;28;20032;-64
2022/08/22 10:32:57;;;;;;;1.13;0.90;;;;;;;;;;5069742;28;20032;-64
2022/08/22 10:35:34;;;;;;;1.57;1.20;;;;;;;;;;5074119;28;20012;-64
2022/08/22 10:38:13;;;;;;;3.33;2.00;;;;;;;;;;5073621;28;20111;-64
2022/08/22 10:40:57;;;;;;;3.33;1.57;;;;;;;;;;5073995;28;20509;-64
2022/08/22 10:43:30;;;;;;;5.88;1.42;;;;;;;;;;5073433;28;20414;-64
2022/08/22 10:46:02;;;;;;;0.93;0.80;;;;;;;;;;5070271;28;20021;-64
2022/08/22 10:48:33;;;;;;;2.70;1.20;;;;;;;;;;5068121;28;20346;-64
2022/08/22 10:51:05;;;;;;;2.33;1.70;;;;;;;;;;5068684;28;20121;-64
2022/08/22 10:53:52;;;;;;;2.07;1.40;;;;;;;;;;5067878;28;20025;-64
2022/08/22 10:56:18;;;;;;;5.07;1.50;;;;;;;;;;5071789;28;20031;-64
2022/08/22 10:58:54;;;;;;;8.90;2.30;;;;;;;;;;5073084;28;20036;-64
2022/08/22 11:01:22;;;;;;;2.43;1.47;;;;;;;;;;5073472;28;20378;-64
2022/08/22 11:03:49;;;;;;;3.53;1.97;;;;;;;;;;5073304;28;20055;-64
2022/08/22 11:06:22;;;;;;;4.10;1.57;;;;;;;;;;5073303;28;20029;-64
2022/08/22 11:08:49;;;;;;;6.90;5.47;;;;;;;;;;5068994;28;20021;-64
2022/08/22 11:11:36;;;;;;;4.00;2.97;;;;;;;;;;5067580;28;20359;-64
2022/08/22 11:14:06;;;;;;;6.00;2.73;;;;;;;;;;5068188;28;20401;-64
2022/08/22 11:16:39;;;;;;;4.50;3.23;;;;;;;;;;5067828;28;20028;-64
2022/08/22 11:19:06;;;;;;;1.97;1.77;;;;;;;;;;5072572;28;20033;-64
2022/08/22 11:21:45;;;;;;;6.70;3.60;;;;;;;;;;5072612;28;20032;-64
2022/08/22 11:24:18;;;;;;;4.63;2.57;;;;;;;;;;5073096;28;20031;-63
2022/08/22 11:26:47;;;;;;;2.37;2.00;;;;;;;;;;5073003;28;20020;-64
2022/08/22 11:29:17;;;;;;;6.77;1.80;;;;;;;;;;5072094;28;20467;-64
2022/08/22 11:32:02;;;;;;;2.97;1.60;;;;;;;;;;5067463;28;20501;-64
2022/08/22 11:34:34;;;;;;;2.13;1.42;;;;;;;;;;5067544;28;20021;-63
2022/08/22 11:37:08;;;;;;;1.53;1.23;;;;;;;;;;5067658;28;20103;-64
2022/08/22 11:39:44;;;;;;;4.33;2.37;;;;;;;;;;5068288;28;20032;-63
2022/08/22 11:42:17;;;;;;;2.03;1.77;;;;;;;;;;5052690;28;20025;-63
2022/08/22 11:44:55;;;;;;;10.10;1.93;;;;;;;;;;5052568;28;20056;-63
2022/08/22 11:47:25;;;;;;;2.70;2.07;;;;;;;;;;5052704;28;20092;-63
2022/08/22 11:49:52;;;;;;;6.70;2.33;;;;;;;;;;5052798;28;20021;-63
2022/08/22 11:52:21;;;;;;;4.57;1.77;;;;;;;;;;5057541;28;20099;-64
2022/08/22 11:55:04;;;;;;;3.27;2.17;;;;;;;;;;5066883;28;20051;-63
2022/08/22 11:57:50;;;;;;;5.17;2.67;;;;;;;;;;5066596;28;20040;-63
2022/08/22 12:00:35;;;;;;;4.47;2.43;;;;;;;;;;5066892;28;20394;-64
2022/08/22 12:03:19;;;;;;;3.03;2.13;;;;;;;;;;5070653;28;20021;-63
2022/08/22 12:05:48;;;;;;;6.07;2.63;;;;;;;;;;5072146;28;20482;-63
2022/08/22 12:08:25;;;;;;;2.97;1.93;;;;;;;;;;5072153;28;20043;-64
2022/08/22 12:10:51;;;;;;;5.40;2.23;;;;;;;;;;5072285;28;20028;-63
2022/08/22 12:13:38;;;;;;;2.83;1.87;;;;;;;;;;5072341;28;20133;-63
2022/08/22 12:16:18;;;;;;;3.37;2.33;;;;;;;;;;5053332;28;20522;-63
2022/08/22 12:18:50;;;;;;;1.63;1.40;;;;;;;;;;5066484;28;20037;-64
2022/08/22 12:21:22;;;;;;;2.33;1.37;;;;;;;;;;5067071;28;20028;-63
2022/08/22 12:23:49;;;;;;;1.33;1.10;;;;;;;;;;5067123;28;20138;-64
2022/08/22 12:26:15;;;;;;;1.37;1.27;;;;;;;;;;5072138;28;20024;-63
2022/08/22 12:28:45;;;;;;;1.63;1.43;;;;;;;;;;5071905;28;20398;-63
2022/08/22 12:31:20;;;;;;;7.20;1.53;;;;;;;;;;5071924;28;20045;-63
2022/08/22 12:33:47;;;;;;;2.87;2.03;;;;;;;;;;5072181;28;20029;-63
2022/08/22 12:36:28;;;;;;;3.50;2.57;;;;;;;;;;5071009;28;20021;-63
2022/08/22 12:39:07;;;;;;;1.30;1.10;;;;;;;;;;5066828;28;20102;-63
2022/08/22 12:41:33;;;;;;;1.47;1.27;;;;;;;;;;5066626;28;20024;-64
2022/08/22 12:44:26;;;;;;;1.37;1.27;;;;;;;;;;5066857;28;20028;-63
2022/08/22 12:46:58;;;;;;;2.57;1.43;;;;;;;;;;5037862;28;20051;-63
2022/08/22 12:49:42;;;;;;;2.73;1.57;;;;;;;;;;5071973;28;20024;-64
2022/08/22 12:52:15;;;;;;;1.53;1.20;;;;;;;;;;5072018;28;20020;-63
2022/08/22 12:54:44;;;;;;;1.80;1.20;;;;;;;;;;5071646;28;20082;-63
2022/08/22 12:57:26;;;;;;;3.10;2.17;;;;;;;;;;5071775;28;20021;-63
2022/08/22 12:59:55;;;;;;;2.53;2.03;;;;;;;;;;5067739;28;20036;-63
2022/08/22 13:02:27;;;;;;;2.30;2.00;;;;;;;;;;5066615;28;20502;-63
2022/08/22 13:05:23;;;;;;;2.27;2.03;;;;;;;;;;5066644;28;20694;-63
2022/08/22 13:07:53;;;;;;;11.82;2.60;;;;;;;;;;5050626;28;20071;-63
2022/08/22 13:10:34;;;;;;;5.20;2.73;;;;;;;;;;5074950;28;20081;-63
2022/08/22 13:13:02;;;;;;;4.63;2.17;;;;;;;;;;5075496;28;20024;-63
2022/08/22 13:15:42;;;;;;;6.37;1.80;;;;;;;;;;5075388;28;20036;-64
2022/08/22 13:18:15;;;;;;;10.87;2.47;;;;;;;;;;5075386;28;20024;-63
2022/08/22 13:20:44;;;;;;;2.90;1.90;;;;;;;;;;5074296;28;20033;-63
2022/08/22 13:23:18;;;;;;;10.83;2.27;;;;;;;;;;5070076;28;20395;-63
2022/08/22 13:25:56;;;;;;;1.90;1.50;;;;;;;;;;5069825;28;20047;-64
2022/08/22 13:28:24;;;;;;;1.90;1.60;;;;;;;;;;5070073;28;20166;-64
2022/08/22 13:30:53;;;;;;;3.83;3.03;;;;;;;;;;5070625;28;20024;-63
2022/08/22 13:33:25;;;;;;;4.07;2.07;;;;;;;;;;5075249;28;20021;-63
2022/08/22 13:35:57;;;;;;;5.30;3.30;;;;;;;;;;5075121;28;20146;-64
2022/08/22 13:38:28;;;;;;;5.30;3.37;;;;;;;;;;5074810;28;20033;-63
2022/08/22 13:40:56;;;;;;;5.40;3.97;;;;;;;;;;5074952;28;20035;-64
2022/08/22 13:43:31;;;;;;;4.00;3.17;;;;;;;;;;5072760;28;20064;-64
2022/08/22 13:46:06;;;;;;;7.38;3.58;;;;;;;;;;5069785;28;20475;-64
2022/08/22 13:48:49;;;;;;;6.55;3.95;;;;;;;;;;5069483;28;20368;-64
2022/08/22 13:51:23;;;;;;;17.70;4.37;;;;;;;;;;5069486;28;20029;-63
2022/08/22 13:53:57;;;;;;;4.97;4.03;;;;;;;;;;5072205;28;20051;-64
2022/08/22 13:56:29;;;;;;;10.80;5.17;;;;;;;;;;5074582;28;20025;-64
2022/08/22 13:59:01;;;;;;;4.70;2.97;;;;;;;;;;5074592;28;20281;-64
2022/08/22 14:01:48;;;;;;;6.83;4.10;;;;;;;;;;5074398;28;20029;-64
2022/08/22 14:04:25;;;;;;;4.50;2.97;;;;;;;;;;5074745;28;20056;-63
2022/08/22 14:06:54;;;;;;;4.33;2.83;;;;;;;;;;5069225;28;20021;-64
2022/08/22 14:09:27;;;;;;;3.60;2.67;;;;;;;;;;5069302;28;20052;-64
2022/08/22 14:12:05;;;;;;;5.37;3.07;;;;;;;;;;5069079;28;20479;-64
2022/08/22 14:14:33;;;;;;;4.10;2.67;;;;;;;;;;5069214;28;20016;-64
2022/08/22 14:17:00;;;;;;;3.97;2.70;;;;;;;;;;5073248;28;20383;-64
2022/08/22 14:19:38;;;;;;;4.57;2.10;;;;;;;;;;5073137;28;20119;-64
2022/08/22 14:22:07;;;;;;;3.27;2.37;;;;;;;;;;5074152;28;20430;-64
2022/08/22 14:25:00;;;;;;;2.80;2.10;;;;;;;;;;5074125;28;20050;-65
2022/08/22 14:27:30;;;;;;;1.30;1.13;;;;;;;;;;5068236;28;20033;-64
2022/08/22 14:30:01;;;;;;;2.80;1.73;;;;;;;;;;5068849;28;20468;-64
2022/08/22 14:32:31;;;;;;;2.00;1.47;;;;;;;;;;5068894;28;20020;-64
2022/08/22 14:35:11;;;;;;;1.67;1.37;;;;;;;;;;5068735;28;20025;-64
2022/08/22 14:37:39;;;;;;;1.63;1.33;;;;;;;;;;5069638;28;20024;-64
2022/08/22 14:40:24;;;;;;;2.30;1.43;;;;;;;;;;5073523;28;20033;-64
2022/08/22 14:42:54;;;;;;;2.22;1.20;;;;;;;;;;5073922;28;20383;-64
2022/08/22 14:45:23;;;;;;;1.97;1.30;;;;;;;;;;5073837;28;20029;-64
2022/08/22 14:47:50;;;;;;;1.60;1.07;;;;;;;;;;5073428;28;20107;-64
2022/08/22 14:50:35;;;;;;;1.17;0.90;;;;;;;;;;5071281;28;20082;-64
2022/08/22 14:53:01;;;;;;;;;;;;;;;;;;5068427;28;20021;-64
2022/08/22 14:55:28;;;;;;;1.53;1.13;;;;;;;;;;5068362;28;19920;-64
2022/08/22 14:57:58;;;;;;;1.63;1.17;;;;;;;;;;5068367;28;20105;-64
2022/08/22 15:00:33;;;;;;;1.33;0.90;;;;;;;;;;5070081;28;20020;-64
2022/08/22 15:03:09;;;;;;;2.55;1.00;;;;;;;;;;5073554;28;20375;-64
2022/08/22 15:05:47;;;;;;;1.10;0.80;;;;;;;;;;5073519;28;20488;-64
2022/08/22 15:08:34;;;;;;;1.67;0.97;;;;;;;;;;5072967;28;20024;-64
2022/08/22 15:11:13;;;;;;;2.03;0.70;;;;;;;;;;5072650;28;20031;-64
2022/08/22 15:13:42;;;;;;;1.67;1.00;;;;;;;;;;5068151;28;20031;-64
2022/08/22 15:16:17;;;;;;;0.63;0.63;;;;;;;;;;5068087;28;20020;-64
2022/08/22 15:18:44;;;;;;;1.30;0.77;;;;;;;;;;5067955;28;20037;-64
2022/08/22 15:21:28;;;;;;;1.73;0.80;;;;;;;;;;5067013;28;20028;-64
2022/08/22 15:23:58;;;;;;;1.80;1.17;;;;;;;;;;5072715;28;20107;-64
2022/08/22 15:26:38;;;;;;;2.30;1.30;;;;;;;;;;5072951;28;20413;-65
2022/08/22 15:29:07;;;;;;;1.30;0.80;;;;;;;;;;5072718;28;20058;-65
2022/08/22 15:31:34;;;;;;;2.10;1.00;;;;;;;;;;5072259;28;20036;-65
2022/08/22 15:34:19;;;;;;;0.90;0.70;;;;;;;;;;5072026;28;20044;-65
2022/08/22 15:37:06;;;;;;;2.77;0.70;;;;;;;;;;5067154;28;20059;-65